메인 페이지
METAR-TAF:

METAR-TAF

공항 :

타이베이 쑹산 공항

타이베이, 타이완

위도: 25-04N, 경도: 121-33E, 고도: 6m

현재 날씨관측

예보는 27분 전, 23:00시(UTC)에 발표되었습니다.
서북서4kt풍과 풍을 오가는
온도 27°C
습도 79%
기압 1007 hPa
시정: 9000m
고도 800ft 상공 구름 조금
고도 1700ft 상공 구름 많음
고도 3000ft 상공 구름 많음

METAR: RCSS 242300Z 30004KT 270V350 9000 FEW008 BKN017 BKN030 27/23 Q1007 NOSIG RMK A2976

시각: 07:27 (23:27 UTC)

예보

예보는 6 시간 27분 전, 17:00시(UTC)에 발표되었습니다.
예보 대상 시간: 24일 18시부터 25일 18시까지 (UTC)
5kt
시정 10km 이상
고도 1500ft 상공 구름 조금
고도 3200ft 상공 구름 많음
전환 중
25일 01시부터 25일 03시까지 (UTC)
북서5kt
일시적
25일 06시부터 25일 12시까지 (UTC)
10kt
전환 중
25일 10시부터 25일 12시까지 (UTC)
여러 방향의 바람 5kt
고도 1200ft 상공 구름 조금
고도 2200ft 상공 구름 많음
고도 5000ft 상공 구름 많음
일시적
25일 12시부터 25일 16시까지 (UTC)
시정: 4000m
고도 1000ft 상공 구름 조금
고도 1500ft 상공 구름 조금, 적란운.
고도 1600ft 상공 구름 많음
고도 4000ft 상공 구름 많음
소나기

TAF: RCSS 241700Z 2418/2518 10005KT 9999 FEW015 BKN032 BECMG 2501/2503 31005KT TEMPO 2506/2512 27010KT BECMG 2510/2512 VRB05KT FEW012 BKN022 BKN050 TEMPO 2512/2516 4000 SHRA FEW010 FEW015CB BKN016 BKN040

4,000개 이상의 공항 관측 자료 및 예보 (METAR 및 TAF 보고).

지도상에서 검색 가능한 기상관측소가 노란 점과 빨간 점으로 표시되어 있습니다.

기상관측소 명을 보려면 표시 위로 마우스를 이동하세요.

날씨 관측과 예보를 보려면 클릭하세요.

지도 변경 : 확대하려면 엑스 표시가 있는 녹색 버튼, 축소하려면 빼기 표시가 있는 녹색 버튼, 다음 페이지의 지도를 보려면 녹색 화살표를 클릭하세요.


METAR-TAF: